createdAt,value
2023-06-29T00:01:10.519Z,21.9
2023-06-29T00:02:54.225Z,21.9
2023-06-29T00:04:37.920Z,21.9
2023-06-29T00:06:21.636Z,21.9
2023-06-29T00:08:05.369Z,21.9
2023-06-29T00:09:49.036Z,21.9
2023-06-29T00:11:32.733Z,21.9
2023-06-29T00:13:16.449Z,21.8
2023-06-29T00:15:00.137Z,21.8
2023-06-29T00:16:43.838Z,21.8
2023-06-29T00:20:11.266Z,21.8
2023-06-29T00:21:54.957Z,21.8
2023-06-29T00:23:38.674Z,21.8
2023-06-29T00:25:22.358Z,21.8
2023-06-29T00:27:06.052Z,21.8
2023-06-29T00:28:49.760Z,21.8
2023-06-29T00:30:33.462Z,21.8
2023-06-29T00:32:17.170Z,21.8
2023-06-29T00:34:00.876Z,21.7
2023-06-29T00:35:44.573Z,21.7
2023-06-29T00:37:28.322Z,21.7
2023-06-29T00:39:11.988Z,21.7
2023-06-29T00:40:55.713Z,21.7
2023-06-29T00:42:39.385Z,21.7
2023-06-29T00:44:23.093Z,21.7
2023-06-29T00:46:06.781Z,21.7
2023-06-29T00:47:50.506Z,21.7
2023-06-29T00:49:34.208Z,21.7
2023-06-29T00:51:17.902Z,21.6
2023-06-29T00:53:01.623Z,21.6
2023-06-29T00:54:45.313Z,21.6
2023-06-29T00:56:29.008Z,21.6
2023-06-29T00:58:12.718Z,21.6
2023-06-29T00:59:56.417Z,21.6
2023-06-29T01:01:40.128Z,21.6
2023-06-29T01:03:23.836Z,21.6
2023-06-29T01:05:07.529Z,21.6
2023-06-29T01:06:51.263Z,21.6
2023-06-29T01:08:34.953Z,21.6
2023-06-29T01:10:18.641Z,21.6
2023-06-29T01:12:02.346Z,21.6
2023-06-29T01:13:46.048Z,21.6
2023-06-29T01:15:29.761Z,21.6
2023-06-29T01:17:13.469Z,21.6
2023-06-29T01:18:57.200Z,21.5
2023-06-29T01:20:40.859Z,21.5
2023-06-29T01:22:24.554Z,21.5
2023-06-29T01:24:08.258Z,21.5
2023-06-29T01:25:51.981Z,21.5
2023-06-29T01:27:35.678Z,21.5
2023-06-29T01:29:19.374Z,21.5
2023-06-29T01:31:03.072Z,21.5
2023-06-29T01:32:46.761Z,21.5
2023-06-29T01:34:30.501Z,21.5
2023-06-29T01:36:14.171Z,21.5
2023-06-29T01:37:57.888Z,21.4
2023-06-29T01:39:41.592Z,21.4
2023-06-29T01:41:25.292Z,21.4
2023-06-29T01:43:09.011Z,21.4
2023-06-29T01:44:52.742Z,21.4
2023-06-29T01:46:36.402Z,21.4
2023-06-29T01:48:20.116Z,21.4
2023-06-29T01:50:03.952Z,21.4
2023-06-29T01:53:30.903Z,21.4
2023-06-29T01:55:14.604Z,21.3
2023-06-29T01:56:58.306Z,21.3
2023-06-29T01:58:42.009Z,21.4
2023-06-29T02:00:25.717Z,21.3
2023-06-29T02:02:09.459Z,21.3
2023-06-29T02:03:53.132Z,21.3
2023-06-29T02:05:36.826Z,21.3
2023-06-29T02:07:20.524Z,21.3
2023-06-29T02:09:04.203Z,21.3
2023-06-29T02:10:47.921Z,21.3
2023-06-29T02:12:31.722Z,21.3
2023-06-29T02:14:15.324Z,21.3
2023-06-29T02:15:59.036Z,21.3
2023-06-29T02:17:42.756Z,21.3
2023-06-29T02:19:26.436Z,21.3
2023-06-29T02:21:10.160Z,21.3
2023-06-29T02:22:53.909Z,21.2
2023-06-29T02:24:37.544Z,21.2
2023-06-29T02:26:21.253Z,21.2
2023-06-29T02:28:04.953Z,21.2
2023-06-29T02:29:48.659Z,21.2
2023-06-29T02:31:32.362Z,21.2
2023-06-29T02:33:16.066Z,21.2
2023-06-29T02:34:59.765Z,21.2
2023-06-29T02:36:43.483Z,21.2
2023-06-29T02:38:27.168Z,21.2
2023-06-29T02:40:10.883Z,21.1
2023-06-29T02:41:54.578Z,21.1
2023-06-29T02:43:38.280Z,21.1
2023-06-29T02:45:22.000Z,21.1
2023-06-29T02:47:05.677Z,21.1
2023-06-29T02:48:49.431Z,21.1
2023-06-29T02:50:33.096Z,21.1
2023-06-29T02:52:16.816Z,21.1
2023-06-29T02:54:00.487Z,21.1
2023-06-29T02:55:44.182Z,21.1
2023-06-29T02:57:27.890Z,21.1
2023-06-29T02:59:11.599Z,21.1
2023-06-29T03:00:55.320Z,21.1
2023-06-29T03:02:39.013Z,21.1
2023-06-29T03:04:22.703Z,21.1
2023-06-29T03:06:06.425Z,21.1
2023-06-29T03:07:50.131Z,21.1
2023-06-29T03:09:33.820Z,21.1
2023-06-29T03:11:17.505Z,21
2023-06-29T03:13:01.229Z,21
2023-06-29T03:14:44.925Z,21
2023-06-29T03:16:28.636Z,21
2023-06-29T03:18:12.331Z,21
2023-06-29T03:19:56.035Z,21
2023-06-29T03:21:39.735Z,21
2023-06-29T03:23:23.444Z,21
2023-06-29T03:25:07.185Z,21
2023-06-29T03:26:50.837Z,21
2023-06-29T03:28:34.543Z,21
2023-06-29T03:30:18.261Z,21
2023-06-29T03:32:01.952Z,21
2023-06-29T03:33:45.640Z,21
2023-06-29T03:35:29.334Z,21
2023-06-29T03:37:13.053Z,21
2023-06-29T03:38:56.752Z,21
2023-06-29T03:40:40.435Z,21
2023-06-29T03:42:24.165Z,21
2023-06-29T03:44:07.866Z,21
2023-06-29T03:45:51.565Z,21
2023-06-29T03:47:35.281Z,21
2023-06-29T03:49:18.970Z,21
2023-06-29T03:51:02.655Z,21
2023-06-29T03:52:46.369Z,21
2023-06-29T03:54:30.094Z,21
2023-06-29T03:56:13.773Z,21.1
2023-06-29T03:57:57.474Z,21.1
2023-06-29T03:59:41.184Z,21.1
2023-06-29T04:01:24.879Z,21.1
2023-06-29T04:03:08.639Z,21.1
2023-06-29T04:04:52.334Z,21.1
2023-06-29T04:06:35.978Z,21.1
2023-06-29T04:08:19.686Z,21.1
2023-06-29T04:10:03.408Z,21.2
2023-06-29T04:11:47.101Z,21.2
2023-06-29T04:13:30.810Z,21.2
2023-06-29T04:15:14.507Z,21.2
2023-06-29T04:16:58.217Z,21.2
2023-06-29T04:18:41.913Z,21.2
2023-06-29T04:20:25.614Z,21.2
2023-06-29T04:22:09.314Z,21.3
2023-06-29T04:23:53.021Z,21.3
2023-06-29T04:25:36.714Z,21.3
2023-06-29T04:27:20.421Z,21.4
2023-06-29T04:29:04.138Z,21.4
2023-06-29T04:30:47.865Z,21.4
2023-06-29T04:32:31.541Z,21.4
2023-06-29T04:34:15.299Z,21.5
2023-06-29T04:35:58.940Z,21.5
2023-06-29T04:37:42.764Z,21.5
2023-06-29T04:39:26.363Z,21.6
2023-06-29T04:41:10.053Z,21.6
2023-06-29T04:42:53.793Z,21.7
2023-06-29T04:44:37.452Z,21.7
2023-06-29T04:46:21.151Z,21.8
2023-06-29T04:48:04.862Z,21.8
2023-06-29T04:49:48.574Z,21.9
2023-06-29T04:51:32.295Z,21.9
2023-06-29T04:53:15.975Z,22
2023-06-29T04:54:59.721Z,22
2023-06-29T04:56:43.392Z,22.1
2023-06-29T04:58:27.072Z,22.1
2023-06-29T05:00:10.787Z,22.2
2023-06-29T05:01:54.487Z,22.2
2023-06-29T05:03:38.195Z,22.3
2023-06-29T05:05:21.885Z,22.5
2023-06-29T05:07:05.644Z,22.5
2023-06-29T05:08:49.311Z,22.6
2023-06-29T05:10:33.011Z,22.6
2023-06-29T05:12:16.709Z,22.7
2023-06-29T05:14:00.411Z,22.7
2023-06-29T05:15:44.123Z,22.8
2023-06-29T05:17:27.804Z,22.9
2023-06-29T05:19:11.510Z,23
2023-06-29T05:20:55.210Z,23
2023-06-29T05:22:38.909Z,23.1
2023-06-29T05:24:22.611Z,23.1
2023-06-29T05:26:06.315Z,23.2
2023-06-29T05:27:50.115Z,23.2
2023-06-29T05:29:33.711Z,23.3
2023-06-29T05:31:17.416Z,23.3
2023-06-29T05:33:01.116Z,23.4
2023-06-29T05:34:44.819Z,23.4
2023-06-29T05:36:28.717Z,23.5
2023-06-29T05:38:12.213Z,23.5
2023-06-29T05:39:55.904Z,23.6
2023-06-29T05:41:39.638Z,23.6
2023-06-29T05:43:23.393Z,23.7
2023-06-29T05:45:07.028Z,23.7
2023-06-29T05:46:50.732Z,23.8
2023-06-29T05:48:34.438Z,23.9
2023-06-29T05:50:18.184Z,23.9
2023-06-29T05:52:01.822Z,24
2023-06-29T05:53:45.559Z,24.1
2023-06-29T05:55:29.272Z,24.2
2023-06-29T05:57:12.921Z,24.2
2023-06-29T05:58:56.643Z,24.4
2023-06-29T06:00:40.329Z,24.6
2023-06-29T06:02:24.131Z,24.6
2023-06-29T06:04:07.777Z,24.7
2023-06-29T06:05:51.436Z,24.9
2023-06-29T06:07:35.194Z,24.9
2023-06-29T06:09:18.879Z,25.4
2023-06-29T06:11:02.573Z,25.4
2023-06-29T06:12:46.259Z,25.8
2023-06-29T06:14:29.957Z,26.4
2023-06-29T06:16:13.649Z,27.3
2023-06-29T06:17:57.370Z,27.9
2023-06-29T06:19:41.071Z,28.3
2023-06-29T06:21:24.766Z,28.6
2023-06-29T06:23:08.468Z,28.9
2023-06-29T06:24:52.172Z,29.3
2023-06-29T06:26:35.898Z,29.8
2023-06-29T06:28:19.581Z,30.3
2023-06-29T06:30:03.268Z,30.7
2023-06-29T06:31:46.971Z,30.6
2023-06-29T06:33:30.677Z,30.1
2023-06-29T06:35:14.387Z,30
2023-06-29T06:36:58.086Z,29.9
2023-06-29T06:38:41.770Z,29.8
2023-06-29T06:40:25.493Z,29.7
2023-06-29T06:42:09.181Z,29.7
2023-06-29T06:43:52.899Z,29.7
2023-06-29T06:45:36.592Z,29.7
2023-06-29T06:47:20.307Z,29.7
2023-06-29T06:49:03.982Z,29.6
2023-06-29T06:50:47.766Z,29.6
2023-06-29T06:52:31.384Z,29.6
2023-06-29T06:54:15.210Z,29.6
2023-06-29T06:55:58.802Z,29.6
2023-06-29T06:57:42.535Z,29.7
2023-06-29T06:59:26.221Z,29.6
2023-06-29T07:01:09.952Z,29.6
2023-06-29T07:02:53.650Z,29.6
2023-06-29T07:04:37.304Z,29.6
2023-06-29T07:06:21.021Z,29.5
2023-06-29T07:08:04.708Z,29.5
2023-06-29T07:09:48.455Z,29.5
2023-06-29T07:11:32.230Z,29.5
2023-06-29T07:13:15.825Z,29.4
2023-06-29T07:14:59.516Z,29.4
2023-06-29T07:16:43.199Z,29.4
2023-06-29T07:18:26.917Z,29.4
2023-06-29T07:20:10.613Z,29.4
2023-06-29T07:21:54.312Z,29.3
2023-06-29T07:23:38.011Z,29.3
2023-06-29T07:25:21.702Z,29.3
2023-06-29T07:27:05.402Z,29.3
2023-06-29T07:28:49.127Z,29.2
2023-06-29T07:30:32.802Z,29.2
2023-06-29T07:32:16.518Z,29.2
2023-06-29T07:34:00.221Z,29.2
2023-06-29T07:35:43.924Z,29.1
2023-06-29T07:37:27.603Z,29.1
2023-06-29T07:39:11.299Z,29.1
2023-06-29T07:40:55.073Z,29.1
2023-06-29T07:44:22.475Z,29
2023-06-29T07:46:06.119Z,29
2023-06-29T07:47:49.802Z,29.1
2023-06-29T07:49:33.531Z,29.1
2023-06-29T07:51:17.235Z,28.9
2023-06-29T07:53:00.895Z,28.6
2023-06-29T07:54:44.605Z,28.4
2023-06-29T07:56:28.316Z,28.2
2023-06-29T07:58:12.065Z,28.1
2023-06-29T07:59:55.715Z,27.9
2023-06-29T08:03:23.108Z,27.7
2023-06-29T08:05:06.801Z,27.6
2023-06-29T08:06:50.515Z,27.5
2023-06-29T08:08:34.225Z,27.5
2023-06-29T08:10:17.939Z,27.5
2023-06-29T08:12:01.649Z,27.5
2023-06-29T08:13:45.340Z,27.4
2023-06-29T08:15:29.037Z,27.4
2023-06-29T08:17:12.748Z,27.4
2023-06-29T08:18:56.579Z,27.3
2023-06-29T08:20:40.158Z,27.4
2023-06-29T08:22:23.863Z,27.6
2023-06-29T08:24:07.571Z,27.6
2023-06-29T08:25:51.262Z,27.7
2023-06-29T08:27:34.976Z,27.8
2023-06-29T08:29:18.682Z,27.8
2023-06-29T08:31:02.468Z,27.8
2023-06-29T08:32:46.097Z,27.7
2023-06-29T08:34:29.815Z,27.6
2023-06-29T08:36:13.510Z,27.6
2023-06-29T08:37:57.193Z,27.5
2023-06-29T08:39:40.901Z,27.4
2023-06-29T08:41:24.591Z,27.4
2023-06-29T08:43:08.282Z,27.3
2023-06-29T08:44:51.990Z,27.3
2023-06-29T08:46:35.695Z,27.3
2023-06-29T08:48:19.401Z,27.3
2023-06-29T08:50:03.120Z,27.2
2023-06-29T08:51:46.829Z,27.1
2023-06-29T08:53:30.544Z,27.1
2023-06-29T08:55:14.253Z,27
2023-06-29T08:56:57.919Z,27
2023-06-29T08:58:41.637Z,26.9
2023-06-29T09:00:25.356Z,26.9
2023-06-29T09:02:09.053Z,26.9
2023-06-29T09:03:52.749Z,26.8
2023-06-29T09:05:36.453Z,26.8
2023-06-29T09:07:20.182Z,26.8
2023-06-29T09:09:03.881Z,26.7
2023-06-29T09:10:47.543Z,26.7
2023-06-29T09:12:31.260Z,26.7
2023-06-29T09:14:14.977Z,26.6
2023-06-29T09:17:42.354Z,26.6
2023-06-29T09:19:26.070Z,26.6
2023-06-29T09:21:09.765Z,26.6
2023-06-29T09:22:53.498Z,26.6
2023-06-29T09:24:37.169Z,26.7
2023-06-29T09:26:20.966Z,26.8
2023-06-29T09:28:04.595Z,26.9
2023-06-29T09:29:48.279Z,26.9
2023-06-29T09:31:31.977Z,27
2023-06-29T09:33:15.702Z,27
2023-06-29T09:34:59.378Z,27
2023-06-29T09:36:43.168Z,27
2023-06-29T09:38:26.812Z,27
2023-06-29T09:40:10.515Z,27
2023-06-29T09:41:54.273Z,27
2023-06-29T09:43:37.897Z,26.9
2023-06-29T09:45:21.849Z,27
2023-06-29T09:47:05.307Z,27
2023-06-29T09:48:49.007Z,27
2023-06-29T09:50:32.707Z,27
2023-06-29T09:52:16.407Z,27.1
2023-06-29T09:54:00.115Z,27.1
2023-06-29T09:55:43.823Z,27.1
2023-06-29T09:57:27.533Z,27.1
2023-06-29T09:59:11.246Z,27.1
2023-06-29T10:00:54.944Z,27.1
2023-06-29T10:02:38.701Z,27.1
2023-06-29T10:04:22.350Z,27.1
2023-06-29T10:06:06.056Z,27.1
2023-06-29T10:07:49.753Z,27.1
2023-06-29T10:09:33.449Z,27.1
2023-06-29T10:11:17.229Z,27.1
2023-06-29T10:13:00.877Z,27
2023-06-29T10:14:44.560Z,27
2023-06-29T10:16:28.266Z,27
2023-06-29T10:18:11.976Z,27
2023-06-29T10:19:55.674Z,27
2023-06-29T10:21:39.431Z,27.1
2023-06-29T10:23:23.077Z,27.1
2023-06-29T10:25:06.812Z,27.1
2023-06-29T10:26:50.568Z,27.1
2023-06-29T10:28:34.168Z,27.1
2023-06-29T10:30:17.888Z,27.2
2023-06-29T10:32:01.585Z,27.2
2023-06-29T10:33:45.289Z,27.1
2023-06-29T10:35:28.991Z,27.1
2023-06-29T10:37:12.690Z,27.1
2023-06-29T10:38:56.414Z,27.1
2023-06-29T10:40:40.101Z,27.1
2023-06-29T10:42:23.825Z,27.1
2023-06-29T10:44:07.497Z,27
2023-06-29T10:45:51.210Z,27
2023-06-29T10:47:34.924Z,27
2023-06-29T10:49:18.641Z,26.9
2023-06-29T10:51:02.325Z,26.9
2023-06-29T10:52:46.033Z,27
2023-06-29T10:54:29.776Z,27.1
2023-06-29T10:56:13.663Z,27
2023-06-29T10:57:57.354Z,27
2023-06-29T10:59:41.124Z,27
2023-06-29T11:01:24.715Z,27
2023-06-29T11:03:08.419Z,27
2023-06-29T11:04:52.109Z,27
2023-06-29T11:06:35.747Z,27.1
2023-06-29T11:08:19.365Z,27
2023-06-29T11:10:03.296Z,27
2023-06-29T11:11:46.811Z,27
2023-06-29T11:13:30.538Z,27
2023-06-29T11:15:14.341Z,27
2023-06-29T11:16:57.981Z,27
2023-06-29T11:18:41.550Z,27
2023-06-29T11:20:25.254Z,27
2023-06-29T11:22:09.159Z,26.9
2023-06-29T11:23:52.850Z,26.8
2023-06-29T11:25:36.530Z,26.8
2023-06-29T11:27:20.248Z,26.7
2023-06-29T11:29:03.994Z,26.6
2023-06-29T11:30:47.627Z,26.6
2023-06-29T11:32:31.405Z,26.6
2023-06-29T11:34:15.057Z,26.6
2023-06-29T11:35:58.571Z,26.5
2023-06-29T11:37:42.471Z,26.5
2023-06-29T11:39:26.165Z,26.5
2023-06-29T11:41:09.948Z,26.6
2023-06-29T11:42:53.494Z,26.6
2023-06-29T11:44:37.169Z,26.6
2023-06-29T11:46:20.795Z,26.6
2023-06-29T11:48:04.661Z,26.6
2023-06-29T11:49:48.330Z,26.7
2023-06-29T11:51:32.125Z,26.7
2023-06-29T11:53:15.762Z,26.7
2023-06-29T11:54:59.493Z,26.7
2023-06-29T11:56:43.041Z,26.7
2023-06-29T11:58:26.917Z,26.7
2023-06-29T12:00:10.540Z,26.7
2023-06-29T12:01:54.285Z,26.8
2023-06-29T12:03:38.037Z,26.8
2023-06-29T12:05:21.598Z,26.8
2023-06-29T12:07:05.229Z,26.8
2023-06-29T12:08:49.097Z,26.8
2023-06-29T12:10:32.784Z,26.8
2023-06-29T12:12:16.327Z,26.8
2023-06-29T12:14:00.231Z,26.8
2023-06-29T12:15:43.727Z,26.9
2023-06-29T12:17:27.566Z,26.9
2023-06-29T12:19:11.251Z,26.9
2023-06-29T12:20:55.029Z,26.9
2023-06-29T12:22:38.584Z,26.9
2023-06-29T12:24:22.379Z,26.9
2023-06-29T12:26:06.169Z,26.8
2023-06-29T12:27:49.850Z,26.8
2023-06-29T12:29:33.537Z,26.7
2023-06-29T12:31:17.212Z,26.7
2023-06-29T12:33:00.961Z,26.6
2023-06-29T12:34:44.705Z,26.6
2023-06-29T12:36:28.322Z,26.5
2023-06-29T12:38:12.009Z,26.5
2023-06-29T12:39:55.738Z,26.7
2023-06-29T12:41:39.428Z,26.9
2023-06-29T12:43:23.172Z,27.1
2023-06-29T12:45:06.845Z,27.2
2023-06-29T12:46:50.570Z,27.2
2023-06-29T12:48:34.260Z,27.3
2023-06-29T12:50:17.881Z,27.4
2023-06-29T12:52:01.674Z,27.4
2023-06-29T12:53:45.403Z,27.6
2023-06-29T12:55:29.052Z,27.6
2023-06-29T12:57:12.671Z,27.6
2023-06-29T12:58:56.364Z,27.6
2023-06-29T13:00:40.220Z,27.6
2023-06-29T13:02:23.894Z,27.6
2023-06-29T13:04:07.398Z,27.5
2023-06-29T13:05:51.335Z,27.5
2023-06-29T13:07:34.964Z,27.5
2023-06-29T13:09:18.773Z,27.5
2023-06-29T13:11:02.389Z,27.5
2023-06-29T13:12:46.028Z,27.5
2023-06-29T13:14:29.753Z,27.5
2023-06-29T13:16:13.334Z,27.5
2023-06-29T13:17:57.185Z,27.5
2023-06-29T13:19:40.903Z,27.5
2023-06-29T13:21:24.642Z,27.5
2023-06-29T13:23:08.203Z,27.5
2023-06-29T13:24:52.002Z,27.5
2023-06-29T13:26:35.735Z,27.5
2023-06-29T13:28:19.346Z,27.5
2023-06-29T13:30:02.945Z,27.5
2023-06-29T13:31:46.940Z,27.6
2023-06-29T13:33:30.569Z,27.6
2023-06-29T13:35:14.236Z,27.6
2023-06-29T13:36:57.945Z,27.6
2023-06-29T13:38:41.691Z,27.6
2023-06-29T13:40:25.371Z,27.6
2023-06-29T13:42:09.040Z,27.6
2023-06-29T13:43:52.813Z,27.6
2023-06-29T13:45:36.269Z,27.6
2023-06-29T13:47:19.996Z,27.6
2023-06-29T13:49:03.970Z,27.6
2023-06-29T13:50:47.406Z,27.6
2023-06-29T13:52:31.337Z,27.6
2023-06-29T13:54:15.004Z,27.5
2023-06-29T13:55:58.714Z,27.5
2023-06-29T13:57:42.403Z,27.5
2023-06-29T13:59:26.101Z,27.5
2023-06-29T14:01:09.795Z,27.5
2023-06-29T14:02:53.545Z,27.5
2023-06-29T14:04:37.135Z,27.4
2023-06-29T14:06:20.966Z,27.4
2023-06-29T14:08:04.617Z,27.4
2023-06-29T14:09:48.400Z,27.4
2023-06-29T14:11:31.865Z,27.4
2023-06-29T14:13:15.794Z,27.4
2023-06-29T14:14:59.351Z,27.4
2023-06-29T14:16:43.096Z,27.3
2023-06-29T14:18:26.853Z,27.3
2023-06-29T14:20:10.517Z,27.3
2023-06-29T14:21:54.257Z,27.3
2023-06-29T14:23:37.765Z,27.3
2023-06-29T14:25:21.667Z,27.3
2023-06-29T14:27:05.314Z,27.3
2023-06-29T14:30:32.732Z,27.4
2023-06-29T14:32:16.288Z,27.4
2023-06-29T14:34:00.125Z,27.4
2023-06-29T14:35:43.671Z,27.4
2023-06-29T14:37:27.609Z,27.4
2023-06-29T14:39:11.131Z,27.4
2023-06-29T14:40:55.006Z,27.4
2023-06-29T14:42:38.553Z,27.4
2023-06-29T14:44:22.406Z,27.3
2023-06-29T14:46:06.086Z,27.3
2023-06-29T14:47:49.827Z,27.3
2023-06-29T14:49:33.503Z,27.3
2023-06-29T14:51:17.174Z,27.4
2023-06-29T14:53:00.886Z,27.4
2023-06-29T14:54:44.613Z,27.4
2023-06-29T14:56:28.280Z,27.4
2023-06-29T14:58:11.882Z,27.5
2023-06-29T14:59:55.661Z,27.5
2023-06-29T15:01:39.291Z,27.4
2023-06-29T15:03:23.129Z,27.4
2023-06-29T15:05:06.810Z,27.4
2023-06-29T15:06:50.323Z,27.3
2023-06-29T15:08:34.140Z,27.2
2023-06-29T15:10:17.920Z,27.1
2023-06-29T15:12:01.471Z,27.1
2023-06-29T15:13:45.336Z,27.1
2023-06-29T15:15:28.815Z,27
2023-06-29T15:17:12.679Z,26.9
2023-06-29T15:18:56.488Z,26.9
2023-06-29T15:20:40.042Z,26.9
2023-06-29T15:22:23.785Z,26.8
2023-06-29T15:24:07.483Z,26.8
2023-06-29T15:25:51.177Z,26.8
2023-06-29T15:27:34.931Z,26.8
2023-06-29T15:29:18.614Z,26.9
2023-06-29T15:31:02.296Z,26.8
2023-06-29T15:32:46.048Z,26.8
2023-06-29T15:34:29.705Z,26.8
2023-06-29T15:36:13.458Z,26.8
2023-06-29T15:37:57.024Z,26.8
2023-06-29T15:39:40.790Z,26.8
2023-06-29T15:41:24.563Z,26.8
2023-06-29T15:43:08.193Z,26.8
2023-06-29T15:44:51.941Z,26.8
2023-06-29T15:46:35.726Z,26.8
2023-06-29T15:48:19.325Z,26.8
2023-06-29T15:50:03.017Z,26.8
2023-06-29T15:51:46.747Z,26.8
2023-06-29T15:53:30.439Z,26.8
2023-06-29T15:55:14.106Z,26.7
2023-06-29T15:56:57.789Z,26.7
2023-06-29T15:58:41.493Z,26.7
2023-06-29T16:00:25.293Z,26.7
2023-06-29T16:02:08.876Z,26.6
2023-06-29T16:03:52.476Z,26.6
2023-06-29T16:05:36.159Z,26.6
2023-06-29T16:07:20.054Z,26.6
2023-06-29T16:09:03.781Z,26.6
2023-06-29T16:10:47.515Z,26.5
2023-06-29T16:12:31.182Z,26.5
2023-06-29T16:14:14.885Z,26.5
2023-06-29T16:15:58.596Z,26.5
2023-06-29T16:17:42.274Z,26.5
2023-06-29T16:19:26.020Z,26.5
2023-06-29T16:21:09.656Z,26.5
2023-06-29T16:22:53.218Z,26.5
2023-06-29T16:24:36.908Z,26.5
2023-06-29T16:26:20.681Z,26.5
2023-06-29T16:28:04.480Z,26.5
2023-06-29T16:29:48.189Z,26.5
2023-06-29T16:31:31.945Z,26.5
2023-06-29T16:33:15.551Z,26.4
2023-06-29T16:34:59.337Z,26.4
2023-06-29T16:36:42.944Z,26.4
2023-06-29T16:38:26.721Z,26.4
2023-06-29T16:40:10.364Z,26.4
2023-06-29T16:41:54.128Z,26.4
2023-06-29T16:43:37.793Z,26.4
2023-06-29T16:45:21.535Z,26.4
2023-06-29T16:47:05.188Z,26.4
2023-06-29T16:48:48.897Z,26.4
2023-06-29T16:50:32.554Z,26.4
2023-06-29T16:52:16.289Z,26.4
2023-06-29T16:54:00.039Z,26.4
2023-06-29T16:55:43.748Z,26.4
2023-06-29T16:57:27.407Z,26.4
2023-06-29T16:59:11.159Z,26.3
2023-06-29T17:00:54.822Z,26.3
2023-06-29T17:02:38.442Z,26.3
2023-06-29T17:04:22.222Z,26.3
2023-06-29T17:06:05.890Z,26.2
2023-06-29T17:07:49.637Z,26.2
2023-06-29T17:09:33.404Z,26.2
2023-06-29T17:11:17.004Z,26.2
2023-06-29T17:13:00.732Z,26.1
2023-06-29T17:14:44.261Z,26.1
2023-06-29T17:16:28.111Z,26.1
2023-06-29T17:18:11.693Z,26.1
2023-06-29T17:19:55.479Z,26
2023-06-29T17:21:39.236Z,26
2023-06-29T17:23:22.910Z,26
2023-06-29T17:25:06.723Z,26.1
2023-06-29T17:26:50.312Z,26.1
2023-06-29T17:28:34.054Z,26.1
2023-06-29T17:30:17.712Z,26.1
2023-06-29T17:32:01.536Z,26.1
2023-06-29T17:33:45.146Z,26.1
2023-06-29T17:35:28.908Z,26.1
2023-06-29T17:37:12.649Z,26.1
2023-06-29T17:38:56.338Z,26.1
2023-06-29T17:40:39.983Z,26.2
2023-06-29T17:42:23.708Z,26.2
2023-06-29T17:44:07.341Z,26.2
2023-06-29T17:45:51.098Z,26.2
2023-06-29T17:47:34.594Z,26.2
2023-06-29T17:49:18.313Z,26.2
2023-06-29T17:51:02.207Z,26.2
2023-06-29T17:52:45.896Z,26.1
2023-06-29T17:54:29.587Z,26.1
2023-06-29T17:56:13.232Z,26.1
2023-06-29T17:57:56.966Z,26.1
2023-06-29T17:59:40.505Z,26
2023-06-29T18:01:24.309Z,26
2023-06-29T18:03:08.071Z,26
2023-06-29T18:04:51.807Z,26
2023-06-29T18:06:35.316Z,25.9
2023-06-29T18:08:19.227Z,25.9
2023-06-29T18:10:02.716Z,25.9
2023-06-29T18:11:46.600Z,25.8
2023-06-29T18:13:30.247Z,25.8
2023-06-29T18:15:13.904Z,25.8
2023-06-29T18:16:57.757Z,25.8
2023-06-29T18:18:41.425Z,25.7
2023-06-29T18:20:25.103Z,25.7
2023-06-29T18:22:08.830Z,25.7
2023-06-29T18:23:52.546Z,25.7
2023-06-29T18:25:36.041Z,25.7
2023-06-29T18:27:19.993Z,25.6
2023-06-29T18:29:03.661Z,25.6
2023-06-29T18:30:47.153Z,25.6
2023-06-29T18:32:30.857Z,25.6
2023-06-29T18:34:14.749Z,25.5
2023-06-29T18:35:58.389Z,25.5
2023-06-29T18:37:42.151Z,25.5
2023-06-29T18:39:25.765Z,25.4
2023-06-29T18:41:09.515Z,25.4
2023-06-29T18:42:53.257Z,25.4
2023-06-29T18:44:36.968Z,25.4
2023-06-29T18:46:20.628Z,25.3
2023-06-29T18:48:04.376Z,25.3
2023-06-29T18:49:48.055Z,25.3
2023-06-29T18:51:31.756Z,25.3
2023-06-29T18:53:15.503Z,25.3
2023-06-29T18:54:59.252Z,25.3
2023-06-29T18:56:42.837Z,25.2
2023-06-29T18:58:26.543Z,25.2
2023-06-29T19:00:10.272Z,25.2
2023-06-29T19:01:53.977Z,25.2
2023-06-29T19:03:37.501Z,25.2
2023-06-29T19:05:21.362Z,25.2
2023-06-29T19:07:05.068Z,25.1
2023-06-29T19:08:48.613Z,25.1
2023-06-29T19:10:32.308Z,25.1
2023-06-29T19:12:16.240Z,25.1
2023-06-29T19:13:59.859Z,25.1
2023-06-29T19:15:43.530Z,25.1
2023-06-29T19:17:27.325Z,25.1
2023-06-29T19:19:11.005Z,25.1
2023-06-29T19:20:54.738Z,25
2023-06-29T19:22:38.405Z,25
2023-06-29T19:24:22.149Z,25
2023-06-29T19:26:05.803Z,25
2023-06-29T19:27:49.500Z,25
2023-06-29T19:29:33.179Z,25
2023-06-29T19:31:16.927Z,25
2023-06-29T19:33:00.608Z,25
2023-06-29T19:34:44.338Z,25
2023-06-29T19:36:27.997Z,24.9
2023-06-29T19:38:11.760Z,24.9
2023-06-29T19:39:55.418Z,24.9
2023-06-29T19:41:39.139Z,24.9
2023-06-29T19:43:22.822Z,24.9
2023-06-29T19:45:06.541Z,24.9
2023-06-29T19:46:50.292Z,24.9
2023-06-29T19:48:33.759Z,24.9
2023-06-29T19:50:17.671Z,24.9
2023-06-29T19:52:01.326Z,24.8
2023-06-29T19:53:45.050Z,24.8
2023-06-29T19:55:28.546Z,24.8
2023-06-29T19:57:12.441Z,24.8
2023-06-29T19:58:56.173Z,24.8
2023-06-29T20:00:39.684Z,24.8
2023-06-29T20:02:23.565Z,24.8
2023-06-29T20:04:07.275Z,24.8
2023-06-29T20:05:51.014Z,24.8
2023-06-29T20:07:34.668Z,24.8
2023-06-29T20:09:18.213Z,24.8
2023-06-29T20:11:01.983Z,24.7
2023-06-29T20:12:45.818Z,24.7
2023-06-29T20:14:29.407Z,24.7
2023-06-29T20:16:13.177Z,24.7
2023-06-29T20:17:56.859Z,24.7
2023-06-29T20:19:40.579Z,24.7
2023-06-29T20:21:24.256Z,24.7
2023-06-29T20:23:07.973Z,24.7
2023-06-29T20:24:51.780Z,24.7
2023-06-29T20:26:35.392Z,24.7
2023-06-29T20:28:19.086Z,24.7
2023-06-29T20:31:46.511Z,24.7
2023-06-29T20:33:30.215Z,24.6
2023-06-29T20:35:13.897Z,24.6
2023-06-29T20:36:57.715Z,24.6
2023-06-29T20:38:41.210Z,24.6
2023-06-29T20:40:24.831Z,24.6
2023-06-29T20:42:08.716Z,24.6
2023-06-29T20:43:52.224Z,24.6
2023-06-29T20:45:36.244Z,24.6
2023-06-29T20:47:19.639Z,24.6
2023-06-29T20:49:03.337Z,24.6
2023-06-29T20:50:47.122Z,24.6
2023-06-29T20:52:30.922Z,24.6
2023-06-29T20:54:14.461Z,24.5
2023-06-29T20:55:58.158Z,24.5
2023-06-29T20:57:41.986Z,24.5
2023-06-29T20:59:25.773Z,24.5
2023-06-29T21:01:09.312Z,24.5
2023-06-29T21:02:53.097Z,24.5
2023-06-29T21:04:36.883Z,24.5
2023-06-29T21:06:20.572Z,24.5
2023-06-29T21:08:04.235Z,24.5
2023-06-29T21:09:47.774Z,24.5
2023-06-29T21:11:31.584Z,24.5
2023-06-29T21:13:15.177Z,24.5
2023-06-29T21:14:58.873Z,24.4
2023-06-29T21:16:42.671Z,24.4
2023-06-29T21:18:26.283Z,24.4
2023-06-29T21:20:10.051Z,24.4
2023-06-29T21:21:53.921Z,24.4
2023-06-29T21:23:37.392Z,24.4
2023-06-29T21:25:21.346Z,24.4
2023-06-29T21:27:04.986Z,24.4
2023-06-29T21:28:48.609Z,24.4
2023-06-29T21:30:32.346Z,24.4
2023-06-29T21:32:15.902Z,24.3
2023-06-29T21:33:59.590Z,24.3
2023-06-29T21:35:43.300Z,24.3
2023-06-29T21:37:27.131Z,24.3
2023-06-29T21:39:10.748Z,24.3
2023-06-29T21:40:54.603Z,24.3
2023-06-29T21:42:38.156Z,24.3
2023-06-29T21:44:21.980Z,24.3
2023-06-29T21:46:05.645Z,24.3
2023-06-29T21:47:49.335Z,24.2
2023-06-29T21:49:33.167Z,24.2
2023-06-29T21:51:16.792Z,24.2
2023-06-29T21:53:00.422Z,24.2
2023-06-29T21:54:44.107Z,24.2
2023-06-29T21:56:27.923Z,24.2
2023-06-29T21:58:11.607Z,24.2
2023-06-29T21:59:55.391Z,24.2
2023-06-29T22:01:38.905Z,24.2
2023-06-29T22:03:22.556Z,24.2
2023-06-29T22:05:06.396Z,24.2
2023-06-29T22:06:49.951Z,24.2
2023-06-29T22:08:33.872Z,24.2
2023-06-29T22:10:17.400Z,24.2
2023-06-29T22:12:01.164Z,24.2
2023-06-29T22:13:44.952Z,24.1
2023-06-29T22:15:28.509Z,24.1
2023-06-29T22:17:12.261Z,24.1
2023-06-29T22:18:56.065Z,24.1
2023-06-29T22:20:39.634Z,24.1
2023-06-29T22:22:23.431Z,24.1
2023-06-29T22:24:07.195Z,24.1
2023-06-29T22:25:50.784Z,24.1
2023-06-29T22:27:34.551Z,24.1
2023-06-29T22:29:18.176Z,24.1
2023-06-29T22:31:01.865Z,24.1
2023-06-29T22:32:45.537Z,24.1
2023-06-29T22:34:29.272Z,24.1
2023-06-29T22:36:12.900Z,24
2023-06-29T22:37:56.592Z,24
2023-06-29T22:39:40.437Z,24
2023-06-29T22:41:24.000Z,24
2023-06-29T22:43:07.917Z,24
2023-06-29T22:44:51.419Z,24
2023-06-29T22:46:35.122Z,24
2023-06-29T22:48:18.999Z,24
2023-06-29T22:50:02.486Z,24
2023-06-29T22:51:46.424Z,24
2023-06-29T22:53:30.105Z,24
2023-06-29T22:55:13.830Z,23.9
2023-06-29T22:56:57.436Z,23.9
2023-06-29T22:58:41.027Z,23.9
2023-06-29T23:00:24.911Z,23.9
2023-06-29T23:02:08.560Z,23.9
2023-06-29T23:03:52.116Z,23.9
2023-06-29T23:05:36.042Z,23.9
2023-06-29T23:07:19.541Z,23.9
2023-06-29T23:09:03.267Z,23.9
2023-06-29T23:10:47.111Z,23.9
2023-06-29T23:12:30.630Z,23.9
2023-06-29T23:14:14.524Z,23.9
2023-06-29T23:15:58.153Z,23.9
2023-06-29T23:17:41.937Z,23.9
2023-06-29T23:19:25.621Z,23.9
2023-06-29T23:21:09.136Z,23.9
2023-06-29T23:22:53.089Z,23.9
2023-06-29T23:24:36.810Z,23.9